Buckley, Washington
Current Conditions -  °F | °C
As of 9:33 PM on Saturday 25 Oct 2014 (Local Time) from KTCM Reporting Station
Overcast Overcast  
Wind Chill: 52°   Ceiling: 3400
Heat Index: 52°   Visibility: 10mi
Dew Point: 50°   Wind: 17mph
Humidity: 94%   Direction: 210°SSW
Pressure: 29.67"   Gusts: 25mph
Location:  47.16°N, 122.03°W
Report Text: KTCM 260433Z AUTO 21015G22KT 10SM SCT021 BKN034 OVC180 11/10 A2967 RMK AO2 RAB0359E0409 PRESRR $
Loading
Personal Weather Stations






























Interactive Weather Map
Tropical Storm Tracking
New forecast layout! Learn more

10-Day Weather Forecast

Advertisements
Track Severe Weather on mobile